Time;durP1;ratioP1;P1;durP2;ratioP2;P2;SDS_P1;SDS_P2;PMS_P1;PMS_P2;Temp;Humidity;BMP_temperature;BMP_pressure;BME280_temperature;BME280_humidity;BME280_pressure;Samples;Min_cycle;Max_cycle;Signal;HPM_P1;HPM_P2
2022/09/27 00:00:30;;;;;;;0.80;0.80;;;;;;;10.83;94.27;99268.97;6273470;28;20400;-73
2022/09/27 00:03:55;;;;;;;2.00;1.90;;;;;;;10.82;94.55;99270.00;6276827;28;20226;-74
2022/09/27 00:07:16;;;;;;;1.53;1.43;;;;;;;10.80;94.26;99265.81;6277024;28;20223;-73
2022/09/27 00:10:37;;;;;;;0.87;0.87;;;;;;;10.67;94.90;99268.22;6275557;28;20232;-73
2022/09/27 00:13:59;;;;;;;1.27;1.00;;;;;;;10.75;94.91;99265.47;6278336;28;20223;-73
2022/09/27 00:17:22;;;;;;;0.70;0.70;;;;;;;10.82;94.75;99261.91;6278427;28;20655;-74
2022/09/27 00:20:43;;;;;;;1.13;0.93;;;;;;;10.74;94.93;99271.91;6268461;28;20239;-73
2022/09/27 00:24:04;;;;;;;1.03;1.00;;;;;;;10.73;94.63;99260.28;6272483;28;20242;-73
2022/09/27 00:27:26;;;;;;;1.37;1.27;;;;;;;10.81;94.85;99257.53;6274754;28;22141;-74
2022/09/27 00:30:48;;;;;;;1.03;1.00;;;;;;;10.71;94.57;99253.38;6269062;28;20801;-74
2022/09/27 00:34:18;;;;;;;1.23;1.13;;;;;;;10.82;94.54;99251.13;6266152;28;20544;-74
2022/09/27 00:37:39;;;;;;;1.17;1.07;;;;;;;10.88;94.92;99236.09;6265438;28;20219;-73
2022/09/27 00:41:00;;;;;;;0.80;0.80;;;;;;;10.82;93.96;99242.22;6267352;28;20293;-74
2022/09/27 00:44:59;;;;;;;1.13;1.13;;;;;;;10.92;94.44;99242.81;6267880;28;20223;-73
2022/09/27 00:48:24;;;;;;;0.67;0.67;;;;;;;10.84;94.00;99245.56;6268558;28;20230;-73
2022/09/27 00:51:51;;;;;;;0.70;0.70;;;;;;;10.87;93.77;99232.56;6269597;28;20226;-72
2022/09/27 00:55:16;;;;;;;1.27;1.03;;;;;;;10.86;94.24;99224.66;6253443;28;20234;-73
2022/09/27 00:58:43;;;;;;;0.73;0.73;;;;;;;10.87;94.75;99231.72;6277445;28;20552;-72
2022/09/27 01:02:06;;;;;;;1.73;1.00;;;;;;;10.90;94.44;99217.88;6272810;28;20243;-73
2022/09/27 01:05:28;;;;;;;0.80;0.80;;;;;;;10.86;94.31;99224.66;6276656;28;20219;-74
2022/09/27 01:08:51;;;;;;;0.80;0.80;;;;;;;10.93;94.56;99218.34;6270307;28;20231;-73
2022/09/27 01:12:23;;;;;;;0.70;0.70;;;;;;;10.91;94.47;99217.69;6240973;28;20500;-73
2022/09/27 01:15:53;;;;;;;1.67;1.27;;;;;;;11.02;94.47;99208.34;6251573;28;20224;-73
2022/09/27 01:19:33;;;;;;;1.60;0.93;;;;;;;10.84;94.30;99211.38;6246440;28;20231;-73
2022/09/27 01:23:12;;;;;;;4.13;0.90;;;;;;;10.97;93.38;99208.88;6269530;28;20321;-73
2022/09/27 01:27:05;;;;;;;2.53;1.03;;;;;;;10.80;94.60;99198.41;6276713;28;20235;-74
2022/09/27 01:30:38;;;;;;;1.30;0.93;;;;;;;10.68;94.81;99203.38;6272562;28;20227;-73
2022/09/27 01:34:08;;;;;;;0.90;0.90;;;;;;;10.79;95.45;99208.34;6264690;28;20227;-73
2022/09/27 01:37:37;;;;;;;1.43;1.30;;;;;;;10.93;94.76;99198.66;6288231;28;20616;-73
2022/09/27 01:41:06;;;;;;;1.80;0.63;;;;;;;10.82;94.42;99196.38;6274258;28;20681;-73
2022/09/27 01:44:38;;;;;;;0.83;0.83;;;;;;;10.78;94.97;99193.22;6273297;28;20501;-74
2022/09/27 01:48:12;;;;;;;1.97;1.00;;;;;;;10.73;95.48;99192.06;6285354;28;20527;-74
2022/09/27 01:51:53;;;;;;;1.10;1.00;;;;;;;10.76;95.41;99175.53;6273003;28;20243;-74
2022/09/27 01:55:18;;;;;;;1.50;1.37;;;;;;;10.82;94.76;99185.59;6271852;28;20222;-74
2022/09/27 01:59:03;;;;;;;0.80;0.80;;;;;;;10.77;95.20;99183.44;6272319;28;20227;-74
2022/09/27 02:02:28;;;;;;;1.20;1.17;;;;;;;10.92;94.47;99178.09;6282442;28;20255;-73
2022/09/27 02:06:15;;;;;;;0.97;0.97;;;;;;;10.99;94.10;99166.41;6273866;28;20227;-73
2022/09/27 02:09:56;;;;;;;1.20;1.10;;;;;;;11.06;94.61;99169.22;6273183;28;20226;-73
2022/09/27 02:13:26;;;;;;;0.87;0.87;;;;;;;10.90;93.94;99172.91;6261214;28;20222;-74
2022/09/27 02:16:59;;;;;;;1.63;0.90;;;;;;;10.81;95.08;99168.59;6287594;28;20222;-74
2022/09/27 02:20:29;;;;;;;0.60;0.60;;;;;;;10.75;95.33;99172.00;6246344;28;20233;-74
2022/09/27 02:23:56;;;;;;;0.97;0.90;;;;;;;10.87;94.77;99169.72;6266402;28;20238;-73
2022/09/27 02:27:24;;;;;;;1.33;1.23;;;;;;;10.89;95.17;99162.31;6288446;28;20230;-74
2022/09/27 02:30:45;;;;;;;1.43;1.33;;;;;;;10.88;95.26;99166.84;6284580;28;20502;-74
2022/09/27 02:34:22;;;;;;;1.37;1.27;;;;;;;10.88;94.87;99160.63;6276826;28;20230;-74
2022/09/27 02:37:44;;;;;;;1.67;1.43;;;;;;;10.95;94.25;99159.69;6258305;28;20660;-74
2022/09/27 02:41:14;;;;;;;2.13;1.37;;;;;;;10.78;94.44;99166.25;6281085;28;20238;-73
2022/09/27 02:44:35;;;;;;;2.27;1.10;;;;;;;10.90;94.88;99162.13;6273600;28;20239;-73
2022/09/27 02:48:10;;;;;;;1.87;0.97;;;;;;;10.98;93.55;99159.34;6278473;28;20235;-73
2022/09/27 02:51:45;;;;;;;1.40;1.30;;;;;;;10.95;93.89;99146.22;6275645;28;20230;-74
2022/09/27 02:55:14;;;;;;;2.97;1.77;;;;;;;10.94;94.49;99154.50;6269694;28;20230;-73
2022/09/27 02:59:02;;;;;;;2.33;1.17;;;;;;;10.88;94.23;99149.84;6275690;28;20231;-72
2022/09/27 03:02:41;;;;;;;1.47;1.00;;;;;;;10.83;94.96;99142.28;6270696;28;20961;-73
2022/09/27 03:06:23;;;;;;;2.90;1.37;;;;;;;10.90;94.25;99143.25;6273008;28;20263;-73
2022/09/27 03:09:47;;;;;;;2.03;1.40;;;;;;;10.86;94.38;99141.09;6263629;28;20231;-73
2022/09/27 03:13:08;;;;;;;1.20;1.20;;;;;;;10.98;94.44;99148.56;6276664;28;20219;-74
2022/09/27 03:16:30;;;;;;;1.20;1.10;;;;;;;10.96;94.13;99139.81;6291212;28;20463;-73
2022/09/27 03:20:04;;;;;;;2.77;1.47;;;;;;;10.90;94.44;99129.78;6286244;28;20238;-73
2022/09/27 03:23:41;;;;;;;1.77;1.67;;;;;;;10.91;94.59;99134.13;6275955;28;20223;-74
2022/09/27 03:27:03;;;;;;;1.03;0.93;;;;;;;11.00;94.49;99124.13;6280819;28;20223;-73
2022/09/27 03:30:24;;;;;;;2.33;1.47;;;;;;;10.88;94.85;99130.97;6275584;28;20986;-74
2022/09/27 03:33:47;;;;;;;1.47;1.33;;;;;;;11.01;93.93;99118.53;6274481;28;20223;-73
2022/09/27 03:37:08;;;;;;;3.83;1.83;;;;;;;11.07;94.42;99117.84;6289618;28;20604;-73
2022/09/27 03:40:29;;;;;;;2.63;2.43;;;;;;;10.96;93.70;99112.03;6274198;28;20235;-74
2022/09/27 03:43:51;;;;;;;2.47;1.60;;;;;;;10.90;94.05;99113.59;6273775;28;20810;-72
2022/09/27 03:47:12;;;;;;;1.53;1.43;;;;;;;10.95;94.44;99116.56;6275286;28;20219;-72
2022/09/27 03:50:35;;;;;;;2.03;1.60;;;;;;;11.07;93.68;99108.91;6286922;28;20318;-73
2022/09/27 03:53:56;;;;;;;4.57;2.13;;;;;;;10.96;94.48;99112.03;6282595;28;20231;-72
2022/09/27 03:57:17;;;;;;;3.90;1.33;;;;;;;10.93;94.29;99104.31;6279492;28;20231;-73
2022/09/27 04:00:40;;;;;;;2.97;1.90;;;;;;;10.89;94.71;99108.41;6270920;28;20227;-74
2022/09/27 04:04:01;;;;;;;2.67;2.47;;;;;;;10.94;94.89;99103.28;6287324;28;20227;-72
2022/09/27 04:07:27;;;;;;;3.77;1.97;;;;;;;10.81;95.08;99106.59;6284941;28;20612;-73
2022/09/27 04:10:48;;;;;;;2.20;1.97;;;;;;;10.96;94.24;99099.38;6285279;28;20227;-74
2022/09/27 04:14:11;;;;;;;6.10;3.00;;;;;;;10.88;94.22;99096.75;6272331;28;20235;-74
2022/09/27 04:17:44;;;;;;;3.67;1.87;;;;;;;10.81;95.11;99101.19;6287295;28;20227;-73
2022/09/27 04:21:28;;;;;;;3.57;2.03;;;;;;;10.75;95.79;99099.22;6263050;28;20227;-73
2022/09/27 04:24:50;;;;;;;1.50;1.40;;;;;;;10.76;95.74;99100.91;6288299;28;20226;-72
2022/09/27 04:28:19;;;;;;;6.20;2.43;;;;;;;10.77;96.01;99096.34;6283154;28;20355;-72
2022/09/27 04:31:42;;;;;;;3.43;3.13;;;;;;;10.83;95.84;99098.31;6291388;28;20223;-74
2022/09/27 04:39:03;;;;;;;2.93;2.30;;;;;;;10.97;95.24;99089.44;6290226;28;20227;-73
2022/09/27 04:42:26;;;;;;;3.40;2.47;;;;;;;10.97;94.47;99092.97;6288435;28;20533;-74
2022/09/27 04:45:47;;;;;;;2.50;2.03;;;;;;;10.94;94.72;99090.66;6289634;28;20615;-74
2022/09/27 04:49:08;;;;;;;1.23;1.13;;;;;;;10.87;94.67;99091.53;6281231;28;20234;-72
2022/09/27 04:52:31;;;;;;;3.60;1.97;;;;;;;10.84;95.19;99087.38;6273223;28;20223;-73
2022/09/27 04:55:52;;;;;;;1.77;1.60;;;;;;;10.84;95.78;99089.22;6280744;28;20287;-73
2022/09/27 04:59:18;;;;;;;2.57;1.70;;;;;;;10.84;95.80;99083.81;6250204;28;20228;-72
2022/09/27 05:02:39;;;;;;;1.23;1.20;;;;;;;11.03;95.10;99088.72;6230290;28;20239;-73
2022/09/27 05:06:18;;;;;;;5.63;3.13;;;;;;;11.03;94.83;99089.56;6275703;28;20599;-72
2022/09/27 05:09:40;;;;;;;3.37;2.20;;;;;;;11.08;94.73;99083.59;6284654;28;20223;-72
2022/09/27 05:13:01;;;;;;;3.50;1.83;;;;;;;11.03;95.46;99094.09;6246219;28;20260;-72
2022/09/27 05:16:24;;;;;;;2.40;2.20;;;;;;;11.08;95.02;99089.81;6243214;28;20520;-72
2022/09/27 05:20:09;;;;;;;2.40;2.00;;;;;;;11.02;94.64;99082.47;6274398;28;20489;-72
2022/09/27 05:23:38;;;;;;;2.83;2.47;;;;;;;10.97;95.60;99092.97;6273765;28;20604;-73
2022/09/27 05:26:59;;;;;;;2.00;1.83;;;;;;;10.99;95.06;99092.78;6278031;28;20223;-72
2022/09/27 05:30:20;;;;;;;5.40;2.80;;;;;;;11.01;95.07;99090.75;6266822;28;20231;-74
2022/09/27 05:33:46;;;;;;;2.33;2.13;;;;;;;11.05;95.33;99094.75;6277343;28;20223;-73
2022/09/27 05:37:33;;;;;;;3.47;2.40;;;;;;;11.14;94.24;99091.78;6280767;28;20235;-73
2022/09/27 05:40:54;;;;;;;3.80;3.17;;;;;;;11.13;95.04;99097.38;6268800;28;20222;-73
2022/09/27 05:44:16;;;;;;;3.13;1.73;;;;;;;11.19;94.31;99100.19;6283878;28;20231;-73
2022/09/27 05:47:53;;;;;;;2.87;1.93;;;;;;;11.33;93.94;99100.38;6278728;28;20315;-73
2022/09/27 05:51:15;;;;;;;3.83;3.47;;;;;;;11.33;93.41;99098.50;6257122;28;20238;-73
2022/09/27 05:54:36;;;;;;;2.37;2.17;;;;;;;11.45;93.24;99096.22;6271381;28;20236;-75
2022/09/27 05:58:00;;;;;;;2.50;2.20;;;;;;;11.45;93.39;99102.44;6273044;28;20605;-74
2022/09/27 06:01:30;;;;;;;2.57;2.33;;;;;;;11.31;93.62;99105.09;6261174;28;20231;-75
2022/09/27 06:05:17;;;;;;;5.67;3.83;;;;;;;11.30;93.21;99109.69;6258947;28;20227;-74
2022/09/27 06:09:00;;;;;;;3.93;2.53;;;;;;;11.19;93.77;99102.03;6266344;28;20227;-74
2022/09/27 06:12:21;;;;;;;3.87;3.03;;;;;;;11.20;94.70;99112.63;6268850;28;20230;-77
2022/09/27 06:15:44;;;;;;;5.37;3.47;;;;;;;11.12;94.93;99107.31;6267599;28;20349;-75
2022/09/27 06:19:05;;;;;;;6.10;4.40;;;;;;;11.17;95.37;99109.47;6268518;28;20231;-77
2022/09/27 06:22:26;;;;;;;5.23;3.27;;;;;;;11.17;95.08;99098.69;6262252;28;20228;-77
2022/09/27 06:25:55;;;;;;;4.40;4.00;;;;;;;11.26;95.02;99103.78;6277568;28;20230;-73
2022/09/27 06:29:25;;;;;;;4.00;3.47;;;;;;;11.15;94.91;99106.97;6284026;28;20593;-74
2022/09/27 06:32:55;;;;;;;5.40;3.80;;;;;;;11.04;94.55;99106.53;6275672;28;20462;-76
2022/09/27 06:36:35;;;;;;;3.23;2.33;;;;;;;10.99;95.32;99114.38;6265035;28;20238;-77
2022/09/27 06:39:56;;;;;;;2.37;2.17;;;;;;;11.04;94.61;99118.19;6283208;28;20265;-77
2022/09/27 06:43:44;;;;;;;3.30;2.70;;;;;;;10.97;94.58;99117.22;6253981;28;20250;-74
2022/09/27 06:47:28;;;;;;;2.27;2.10;;;;;;;10.98;94.59;99118.91;6269395;28;20232;-79
2022/09/27 06:51:07;;;;;;;2.57;1.90;;;;;;;11.08;94.72;99119.50;6270797;28;20604;-78
2022/09/27 06:54:29;;;;;;;3.07;2.10;;;;;;;11.03;94.10;99121.91;6278996;28;20236;-76
2022/09/27 07:01:34;;;;;;;7.27;1.20;;;;;;;11.07;94.30;99131.31;6267889;28;20234;-78
2022/09/27 07:05:24;;;;;;;1.23;1.10;;;;;;;11.02;94.37;99133.69;6216632;28;20231;-73
2022/09/27 07:09:02;;;;;;;3.30;3.03;;;;;;;11.03;94.27;99129.16;6279747;28;20226;-76
2022/09/27 07:12:23;;;;;;;1.50;0.80;;;;;;;11.09;92.92;99142.75;6266172;28;21978;-78
2022/09/27 07:15:44;;;;;;;0.67;0.67;;;;;;;11.03;93.66;99142.63;6270179;28;20231;-76
2022/09/27 07:19:12;;;;;;;0.93;0.93;;;;;;;11.08;93.08;99145.59;6277391;28;20227;-76
2022/09/27 07:22:38;;;;;;;1.03;0.70;;;;;;;10.89;94.29;99141.56;6282362;28;20251;-74
2022/09/27 07:26:03;;;;;;;0.80;0.80;;;;;;;10.99;94.47;99150.22;6274366;28;20243;-77
2022/09/27 07:29:24;;;;;;;0.70;0.70;;;;;;;11.16;93.63;99159.88;6279939;28;20231;-76
2022/09/27 07:32:47;;;;;;;1.13;0.73;;;;;;;11.09;93.01;99164.31;6261140;28;20321;-72
2022/09/27 07:36:11;;;;;;;0.40;0.27;;;;;;;11.23;91.17;99168.91;6292531;28;20607;-80
2022/09/27 07:39:37;;;;;;;0.40;0.40;;;;;;;11.20;89.82;99169.25;6284587;28;20653;-77
2022/09/27 07:42:58;;;;;;;2.67;0.47;;;;;;;11.45;88.79;99166.34;6284334;28;20232;-74
2022/09/27 07:46:19;;;;;;;1.27;0.87;;;;;;;11.58;88.08;99166.53;6269683;28;20501;-75
2022/09/27 07:49:46;;;;;;;2.30;1.90;;;;;;;11.68;87.21;99167.97;6278285;28;20230;-75
2022/09/27 07:53:31;;;;;;;1.00;0.80;;;;;;;11.82;87.61;99174.44;6282587;28;20222;-76
2022/09/27 07:57:13;;;;;;;2.30;1.60;;;;;;;11.61;88.76;99168.88;6259828;28;20236;-73
2022/09/27 08:00:43;;;;;;;1.80;1.20;;;;;;;11.77;88.27;99174.13;6280451;28;20254;-74
2022/09/27 08:04:05;;;;;;;1.30;1.20;;;;;;;11.68;89.48;99181.47;6272866;28;20239;-75
2022/09/27 08:07:27;;;;;;;1.53;0.80;;;;;;;11.64;89.43;99176.63;6285457;28;20656;-75
2022/09/27 08:10:50;;;;;;;5.33;1.80;;;;;;;11.76;89.49;99185.97;6277882;28;20251;-73
2022/09/27 08:14:13;;;;;;;1.07;1.03;;;;;;;11.90;89.13;99194.09;6283242;28;20239;-73
2022/09/27 08:17:37;;;;;;;1.47;1.10;;;;;;;11.80;89.68;99190.81;6288203;28;20227;-72
2022/09/27 08:21:02;;;;;;;2.00;0.70;;;;;;;11.73;88.48;99186.31;6274214;28;20227;-76
2022/09/27 08:24:43;;;;;;;6.07;4.70;;;;;;;11.77;88.84;99191.19;6278680;28;21032;-77
2022/09/27 08:28:24;;;;;;;1.23;0.83;;;;;;;11.70;89.56;99200.22;6273515;28;20239;-72
2022/09/27 08:31:59;;;;;;;0.83;0.83;;;;;;;11.60;89.21;99203.13;6278674;28;20219;-73
2022/09/27 08:35:21;;;;;;;1.03;1.03;;;;;;;11.67;89.79;99209.50;6271055;28;20231;-73
2022/09/27 08:38:42;;;;;;;2.27;0.60;;;;;;;11.64;89.01;99209.03;6279372;28;20311;-74
2022/09/27 08:42:12;;;;;;;1.27;1.17;;;;;;;11.76;89.62;99221.06;6272132;28;20224;-74
2022/09/27 08:45:39;;;;;;;1.33;1.03;;;;;;;11.67;89.29;99222.16;6244539;28;20322;-74
2022/09/27 08:49:09;;;;;;;0.97;0.97;;;;;;;11.52;90.19;99222.09;6259984;28;20230;-74
2022/09/27 08:52:36;;;;;;;0.40;0.40;;;;;;;11.51;90.03;99222.28;6273226;28;20230;-74
2022/09/27 08:56:02;;;;;;;1.20;1.10;;;;;;;11.54;90.46;99224.59;6264067;28;20618;-76
2022/09/27 08:59:31;;;;;;;0.70;0.70;;;;;;;11.52;89.94;99232.06;6254317;28;21543;-73
2022/09/27 09:02:55;;;;;;;1.00;0.90;;;;;;;11.48;90.57;99233.44;6253202;28;20226;-72
2022/09/27 09:06:22;;;;;;;1.37;1.27;;;;;;;11.48;90.87;99233.44;6262955;28;21177;-73
2022/09/27 09:09:52;;;;;;;2.20;1.27;;;;;;;11.57;91.09;99235.91;6246561;28;20506;-73
2022/09/27 09:13:26;;;;;;;3.93;1.00;;;;;;;11.60;90.38;99242.81;6253888;28;20227;-73
2022/09/27 09:17:06;;;;;;;0.80;0.70;;;;;;;11.54;89.27;99243.50;6270161;28;20231;-74
2022/09/27 09:20:58;;;;;;;1.37;1.03;;;;;;;11.28;89.91;99243.91;6259021;28;20231;-74
2022/09/27 09:24:36;;;;;;;0.70;0.70;;;;;;;11.13;90.80;99251.09;6216140;28;20526;-74
2022/09/27 09:28:13;;;;;;;1.27;0.83;;;;;;;11.30;90.60;99254.50;6250967;28;20228;-72
2022/09/27 09:31:40;;;;;;;1.63;1.53;;;;;;;11.06;90.77;99253.66;6275195;28;20238;-71
2022/09/27 09:35:06;;;;;;;1.53;1.00;;;;;;;11.50;90.19;99264.63;6274856;28;20227;-68
2022/09/27 09:38:37;;;;;;;1.20;1.10;;;;;;;11.67;90.27;99246.47;6278064;28;20241;-66
2022/09/27 09:42:07;;;;;;;0.77;0.77;;;;;;;11.54;89.75;99268.63;6267532;28;20984;-67
2022/09/27 09:45:33;;;;;;;0.83;0.83;;;;;;;11.74;89.58;99269.00;6277479;28;20262;-68
2022/09/27 09:49:00;;;;;;;0.90;0.87;;;;;;;11.87;90.51;99264.63;6287665;28;20346;-68
2022/09/27 09:52:26;;;;;;;1.87;0.70;;;;;;;11.63;88.28;99261.31;6280163;28;20220;-70
2022/09/27 09:55:52;;;;;;;0.80;0.80;;;;;;;11.79;90.31;99255.78;6277208;28;20235;-68
2022/09/27 09:59:18;;;;;;;0.77;0.57;;;;;;;11.57;88.86;99262.03;6277615;28;20668;-67
2022/09/27 10:02:43;;;;;;;0.90;0.60;;;;;;;11.84;89.13;99265.03;6251513;28;20695;-68
2022/09/27 10:06:10;;;;;;;1.53;1.03;;;;;;;11.50;88.93;99271.88;6260232;28;20323;-77
2022/09/27 10:09:32;;;;;;;0.50;0.50;;;;;;;11.41;88.72;99272.97;6267195;28;20254;-75
2022/09/27 10:13:35;;;;;;;0.43;0.43;;;;;;;11.50;89.08;99261.06;6266740;28;20243;-74
2022/09/27 10:17:04;;;;;;;1.37;1.27;;;;;;;11.31;89.79;99275.06;6276174;28;20613;-76
2022/09/27 10:20:30;;;;;;;1.23;0.63;;;;;;;11.46;90.18;99276.81;6264256;28;20491;-74
2022/09/27 10:24:04;;;;;;;2.30;1.23;;;;;;;11.52;89.83;99264.44;6226804;28;20239;-78
2022/09/27 10:27:54;;;;;;;1.03;0.50;;;;;;;11.76;88.58;99269.66;6271300;28;21234;-75
2022/09/27 10:31:21;;;;;;;0.50;0.50;;;;;;;11.61;89.55;99272.28;6276777;28;20325;-74
2022/09/27 10:35:21;;;;;;;0.60;0.60;;;;;;;11.69;87.75;99276.81;6280450;28;20231;-78
2022/09/27 10:38:52;;;;;;;0.70;0.70;;;;;;;11.43;88.90;99276.34;6296782;28;20254;-77
2022/09/27 10:42:32;;;;;;;0.97;0.97;;;;;;;11.72;88.49;99277.28;6288254;28;20260;-76
2022/09/27 10:46:02;;;;;;;1.30;1.10;;;;;;;11.75;88.64;99276.91;6300115;28;20234;-76
2022/09/27 10:49:32;;;;;;;0.70;0.50;;;;;;;12.00;88.23;99293.72;6287753;28;20509;-75
2022/09/27 10:53:03;;;;;;;1.30;1.20;;;;;;;11.95;88.86;99299.66;6284006;28;20525;-77
2022/09/27 10:56:28;;;;;;;1.00;0.60;;;;;;;12.01;89.34;99292.72;6288822;28;20222;-75
2022/09/27 10:59:52;;;;;;;0.60;0.60;;;;;;;12.24;86.44;99304.28;6285390;28;20224;-77
2022/09/27 11:03:17;;;;;;;0.40;0.40;;;;;;;12.11;85.92;99300.53;6283377;28;20238;-75
2022/09/27 11:06:40;;;;;;;0.53;0.47;;;;;;;12.29;85.90;99295.59;6294658;28;20227;-74
2022/09/27 11:10:22;;;;;;;0.47;0.47;;;;;;;12.36;85.97;99301.94;6285926;28;20223;-74
2022/09/27 11:13:58;;;;;;;0.50;0.50;;;;;;;12.48;84.94;99300.44;6277029;28;20250;-73
2022/09/27 11:17:26;;;;;;;0.60;0.60;;;;;;;12.13;85.20;99301.19;6270966;28;20231;-76
2022/09/27 11:21:00;;;;;;;1.90;0.60;;;;;;;12.05;86.21;99296.72;6279139;28;20271;-74
2022/09/27 11:24:35;;;;;;;0.50;0.50;;;;;;;12.14;85.60;99298.28;6282395;28;20862;-73
2022/09/27 11:28:07;;;;;;;0.40;0.40;;;;;;;12.25;85.86;99303.25;6275621;28;20227;-74
2022/09/27 11:31:41;;;;;;;0.57;0.53;;;;;;;11.95;86.28;99302.38;6271558;28;20259;-74
2022/09/27 11:35:19;;;;;;;2.10;1.23;;;;;;;12.23;86.24;99299.91;6290072;28;20227;-72
2022/09/27 11:38:56;;;;;;;0.40;0.40;;;;;;;12.58;85.59;99307.25;6278264;28;20319;-74
2022/09/27 11:42:41;;;;;;;0.80;0.80;;;;;;;12.85;85.12;99298.44;6274005;28;20227;-72
2022/09/27 11:46:16;;;;;;;2.13;1.13;;;;;;;12.95;84.98;99292.75;6272997;28;20227;-71
2022/09/27 11:50:25;;;;;;;0.67;0.67;;;;;;;13.36;83.21;99304.69;6275499;28;20231;-72
2022/09/27 11:53:57;;;;;;;0.57;0.57;;;;;;;13.78;79.61;99300.31;6191368;28;20233;-74
2022/09/27 11:57:25;;;;;;;7.30;6.20;;;;;;;14.60;77.29;99304.91;6190529;28;20231;-76
2022/09/27 12:01:02;;;;;;;1.43;0.70;;;;;;;14.67;75.52;99311.19;6281368;28;20234;-75
2022/09/27 12:04:57;;;;;;;0.70;0.70;;;;;;;14.22;77.98;99314.41;6269718;28;20239;-72
2022/09/27 12:08:32;;;;;;;1.13;0.53;;;;;;;13.82;78.37;99313.25;6265304;28;20235;-72
2022/09/27 12:11:58;;;;;;;5.20;0.80;;;;;;;13.75;77.89;99316.97;6275655;28;20234;-74
2022/09/27 12:15:24;;;;;;;0.60;0.60;;;;;;;13.40;80.31;99311.41;6272625;28;20615;-73
2022/09/27 12:18:48;;;;;;;1.70;0.47;;;;;;;13.53;79.56;99316.97;6281118;28;21065;-74
2022/09/27 12:22:28;;;;;;;1.07;0.70;;;;;;;13.52;78.90;99317.13;6277930;28;20563;-73
2022/09/27 12:25:56;;;;;;;1.10;0.73;;;;;;;13.73;79.11;99319.00;6292229;28;20227;-73
2022/09/27 12:29:25;;;;;;;1.23;0.40;;;;;;;13.96;77.46;99325.03;6270586;28;20230;-75
2022/09/27 12:32:55;;;;;;;0.40;0.40;;;;;;;13.68;76.92;99318.75;6281188;28;20231;-73
2022/09/27 12:36:19;;;;;;;0.30;0.30;;;;;;;13.53;79.30;99327.78;6283212;28;20226;-75
2022/09/27 12:39:49;;;;;;;0.37;0.37;;;;;;;13.44;79.53;99317.25;6272853;28;20250;-77
2022/09/27 12:43:20;;;;;;;0.90;0.70;;;;;;;13.27;79.97;99319.38;6287125;28;20306;-72
2022/09/27 12:47:15;;;;;;;0.47;0.47;;;;;;;13.66;78.92;99318.97;6264621;28;20572;-74
2022/09/27 12:50:43;;;;;;;1.07;0.60;;;;;;;14.09;76.78;99315.16;6245101;28;20227;-71
2022/09/27 12:54:28;;;;;;;1.07;0.73;;;;;;;13.75;78.13;99309.66;6250080;28;20568;-72
2022/09/27 12:58:01;;;;;;;1.07;0.70;;;;;;;12.81;81.96;99317.94;6274821;28;20232;-71
2022/09/27 13:01:40;;;;;;;0.97;0.83;;;;;;;12.59;83.39;99314.34;6287857;28;20223;-73
2022/09/27 13:05:18;;;;;;;0.70;0.70;;;;;;;12.51;82.39;99313.59;6291713;28;20239;-77
2022/09/27 13:09:10;;;;;;;0.57;0.57;;;;;;;12.34;83.15;99321.06;6281572;28;20227;-77
2022/09/27 13:12:34;;;;;;;0.43;0.43;;;;;;;12.44;82.79;99332.44;6267008;28;20227;-73
2022/09/27 13:15:58;;;;;;;0.40;0.40;;;;;;;12.22;82.82;99337.91;6262571;28;20231;-72
2022/09/27 13:19:41;;;;;;;0.63;0.30;;;;;;;12.30;82.82;99332.41;6288902;28;20597;-76
2022/09/27 13:23:05;;;;;;;0.93;0.40;;;;;;;12.44;82.02;99342.41;6284475;28;20683;-75
2022/09/27 13:26:50;;;;;;;0.57;0.57;;;;;;;12.64;81.24;99344.34;6277347;28;20607;-75
2022/09/27 13:30:47;;;;;;;0.40;0.40;;;;;;;12.68;81.16;99342.13;6278030;28;20227;-76
2022/09/27 13:34:38;;;;;;;0.50;0.50;;;;;;;12.99;79.67;99347.31;6282741;28;20248;-75
2022/09/27 13:38:00;;;;;;;0.43;0.43;;;;;;;13.05;79.80;99347.44;6265023;28;20306;-79
2022/09/27 13:41:26;;;;;;;0.47;0.47;;;;;;;13.05;80.64;99357.41;6273756;28;20312;-74
2022/09/27 13:45:13;;;;;;;0.50;0.50;;;;;;;12.57;80.10;99369.63;6266132;28;20232;-78
2022/09/27 13:48:48;;;;;;;0.50;0.50;;;;;;;12.87;79.81;99365.88;6280942;28;20231;-73
2022/09/27 13:52:19;;;;;;;0.93;0.40;;;;;;;12.91;79.01;99363.66;6238884;28;20605;-78
2022/09/27 13:55:46;;;;;;;1.47;1.37;;;;;;;13.09;78.10;99350.59;6266179;28;20611;-73
2022/09/27 13:59:45;;;;;;;0.60;0.60;;;;;;;13.21;77.73;99373.41;6264597;28;20235;-80
2022/09/27 14:03:37;;;;;;;0.83;0.83;;;;;;;13.36;77.88;99366.97;6270306;28;20215;-74
2022/09/27 14:07:02;;;;;;;1.03;0.90;;;;;;;13.59;76.22;99369.50;6266584;28;20231;-74
2022/09/27 14:10:26;;;;;;;0.50;0.50;;;;;;;13.03;78.09;99372.97;6265832;28;20322;-73
2022/09/27 14:13:48;;;;;;;0.50;0.30;;;;;;;12.51;80.06;99367.66;6281638;28;20255;-74
2022/09/27 14:17:11;;;;;;;0.60;0.60;;;;;;;12.57;80.29;99375.03;6287910;28;20731;-76
2022/09/27 14:20:37;;;;;;;0.50;0.50;;;;;;;12.32;81.71;99392.53;6284768;28;20227;-75
2022/09/27 14:24:21;;;;;;;1.50;0.90;;;;;;;12.43;81.68;99386.69;6276009;28;22392;-77
2022/09/27 14:27:42;;;;;;;1.20;1.10;;;;;;;12.28;81.90;99386.66;6288984;28;20262;-76
2022/09/27 14:31:16;;;;;;;0.60;0.60;;;;;;;12.64;80.17;99387.59;6289262;28;20237;-75
2022/09/27 14:37:22;;;;;;;0.77;0.63;;;;;;;12.80;78.98;99392.84;6269985;28;20310;-76
2022/09/27 14:38:52;;;;;;;0.87;0.83;;;;;;;12.42;79.33;99393.94;6252432;28;20306;-77
2022/09/27 14:42:21;;;;;;;1.40;1.00;;;;;;;12.49;79.26;99396.75;6281915;28;20357;-75
2022/09/27 14:45:41;;;;;;;1.40;1.00;;;;;;;12.48;79.34;99398.59;6271385;28;20707;-76
2022/09/27 14:49:12;;;;;;;3.80;0.60;;;;;;;12.25;81.13;99410.47;6265773;28;20231;-76
2022/09/27 14:52:35;;;;;;;1.70;0.90;;;;;;;12.33;81.21;99411.25;6266483;28;20227;-77
2022/09/27 14:55:58;;;;;;;0.80;0.80;;;;;;;12.38;80.93;99416.94;6270762;28;20223;-77
2022/09/27 14:59:29;;;;;;;2.60;0.90;;;;;;;12.25;81.55;99414.03;6260982;28;20713;-75
2022/09/27 15:02:53;;;;;;;3.80;0.90;;;;;;;12.16;81.60;99411.59;6268782;28;20638;-75
2022/09/27 15:06:15;;;;;;;0.90;0.90;;;;;;;12.11;81.77;99417.53;6274414;28;20222;-75
2022/09/27 15:09:36;;;;;;;0.80;0.80;;;;;;;12.23;81.74;99418.78;6272657;28;20317;-77
2022/09/27 15:13:02;;;;;;;0.87;0.80;;;;;;;12.14;81.05;99422.56;6275822;28;20313;-75
2022/09/27 15:16:25;;;;;;;0.40;0.40;;;;;;;12.31;79.75;99420.56;6270911;28;20223;-75
2022/09/27 15:19:57;;;;;;;2.10;0.60;;;;;;;12.29;79.16;99422.59;6274552;28;20247;-75
2022/09/27 15:23:26;;;;;;;0.60;0.60;;;;;;;12.40;79.24;99425.72;6277003;28;20227;-77
2022/09/27 15:26:50;;;;;;;0.70;0.60;;;;;;;12.37;79.26;99434.19;6287737;28;20579;-75
2022/09/27 15:30:18;;;;;;;0.47;0.47;;;;;;;12.17;80.36;99429.47;6282335;28;20306;-77
2022/09/27 15:33:39;;;;;;;1.33;0.70;;;;;;;12.09;79.74;99432.25;6285606;28;20242;-77
2022/09/27 15:37:02;;;;;;;0.73;0.73;;;;;;;12.10;80.47;99437.44;6280449;28;20227;-75
2022/09/27 15:41:06;;;;;;;0.70;0.70;;;;;;;12.18;79.59;99433.88;6277720;28;20219;-76
2022/09/27 15:44:37;;;;;;;1.17;0.63;;;;;;;12.17;79.97;99449.22;6277351;28;20342;-78
2022/09/27 15:48:14;;;;;;;0.83;0.83;;;;;;;12.19;80.40;99443.63;6259756;28;20573;-79
2022/09/27 15:51:39;;;;;;;0.50;0.50;;;;;;;11.88;81.33;99443.72;6267686;28;20239;-74
2022/09/27 15:55:00;;;;;;;1.53;1.20;;;;;;;11.93;80.89;99439.44;6271588;28;20531;-74
2022/09/27 15:58:21;;;;;;;0.93;0.93;;;;;;;11.97;81.01;99429.94;6283841;28;20231;-74
2022/09/27 16:01:42;;;;;;;0.67;0.60;;;;;;;11.81;80.50;99446.28;6281455;28;20234;-73
2022/09/27 16:05:05;;;;;;;0.47;0.43;;;;;;;11.79;80.96;99453.72;6282101;28;20231;-74
2022/09/27 16:08:27;;;;;;;0.40;0.40;;;;;;;11.67;81.62;99455.16;6286892;28;20227;-75
2022/09/27 16:11:49;;;;;;;0.63;0.63;;;;;;;11.73;81.54;99464.38;6281930;28;20232;-73
2022/09/27 16:15:11;;;;;;;0.90;0.90;;;;;;;11.62;81.90;99465.59;6285027;28;20251;-74
2022/09/27 16:18:32;;;;;;;1.30;1.03;;;;;;;11.63;81.31;99472.69;6287261;28;20314;-74
2022/09/27 16:21:54;;;;;;;0.60;0.50;;;;;;;11.75;81.09;99474.00;6279513;28;20227;-74
2022/09/27 16:25:15;;;;;;;1.33;0.60;;;;;;;11.48;82.21;99479.00;6284073;28;20231;-75
2022/09/27 16:28:36;;;;;;;2.10;0.60;;;;;;;11.63;81.35;99477.25;6280806;28;20350;-75
2022/09/27 16:31:57;;;;;;;2.00;0.70;;;;;;;11.58;82.34;99483.16;6276050;28;20260;-75
2022/09/27 16:35:19;;;;;;;1.40;1.00;;;;;;;11.57;81.88;99488.75;6271236;28;20977;-73